sensor_id;sensor_type;location;lat;lon;timestamp;P1;durP1;ratioP1;P2;durP2;ratioP2
60896;SDS011;46749;32.932;-117.130;2023-07-02T00:02:13;6.97;;;2.33;;
60896;SDS011;46749;32.932;-117.130;2023-07-02T00:04:41;4.80;;;2.28;;
60896;SDS011;46749;32.932;-117.130;2023-07-02T00:07:07;4.25;;;2.15;;
60896;SDS011;46749;32.932;-117.130;2023-07-02T00:09:33;5.47;;;2.67;;
60896;SDS011;46749;32.932;-117.130;2023-07-02T00:11:59;4.03;;;2.65;;
60896;SDS011;46749;32.932;-117.130;2023-07-02T00:14:26;5.28;;;2.10;;
60896;SDS011;46749;32.932;-117.130;2023-07-02T00:16:52;3.03;;;1.90;;
60896;SDS011;46749;32.932;-117.130;2023-07-02T00:19:18;3.88;;;2.10;;
60896;SDS011;46749;32.932;-117.130;2023-07-02T00:21:44;5.20;;;2.58;;
60896;SDS011;46749;32.932;-117.130;2023-07-02T00:24:10;2.65;;;2.13;;
60896;SDS011;46749;32.932;-117.130;2023-07-02T00:26:36;5.00;;;2.22;;
60896;SDS011;46749;32.932;-117.130;2023-07-02T00:29:03;3.63;;;1.98;;
60896;SDS011;46749;32.932;-117.130;2023-07-02T00:31:31;6.60;;;2.00;;
60896;SDS011;46749;32.932;-117.130;2023-07-02T00:33:58;3.22;;;1.73;;
60896;SDS011;46749;32.932;-117.130;2023-07-02T00:36:26;4.53;;;2.08;;
60896;SDS011;46749;32.932;-117.130;2023-07-02T00:38:53;3.83;;;2.22;;
60896;SDS011;46749;32.932;-117.130;2023-07-02T00:41:19;3.95;;;2.72;;
60896;SDS011;46749;32.932;-117.130;2023-07-02T00:43:45;3.22;;;1.90;;
60896;SDS011;46749;32.932;-117.130;2023-07-02T00:46:15;2.92;;;1.95;;
60896;SDS011;46749;32.932;-117.130;2023-07-02T00:48:50;4.93;;;2.25;;
60896;SDS011;46749;32.932;-117.130;2023-07-02T00:51:18;3.85;;;2.42;;
60896;SDS011;46749;32.932;-117.130;2023-07-02T00:53:55;4.88;;;2.22;;
60896;SDS011;46749;32.932;-117.130;2023-07-02T00:56:23;8.18;;;2.63;;
60896;SDS011;46749;32.932;-117.130;2023-07-02T00:58:51;25.30;;;3.05;;
60896;SDS011;46749;32.932;-117.130;2023-07-02T01:01:19;11.80;;;2.60;;
60896;SDS011;46749;32.932;-117.130;2023-07-02T01:04:05;9.13;;;2.10;;
60896;SDS011;46749;32.932;-117.130;2023-07-02T01:06:37;12.65;;;1.83;;
60896;SDS011;46749;32.932;-117.130;2023-07-02T01:09:07;5.60;;;1.77;;
60896;SDS011;46749;32.932;-117.130;2023-07-02T01:11:54;5.30;;;1.90;;
60896;SDS011;46749;32.932;-117.130;2023-07-02T01:14:28;5.15;;;1.95;;
60896;SDS011;46749;32.932;-117.130;2023-07-02T01:16:59;6.20;;;1.70;;
60896;SDS011;46749;32.932;-117.130;2023-07-02T01:22:21;3.83;;;1.60;;
60896;SDS011;46749;32.932;-117.130;2023-07-02T01:24:50;3.13;;;1.80;;
60896;SDS011;46749;32.932;-117.130;2023-07-02T01:27:17;5.35;;;2.20;;
60896;SDS011;46749;32.932;-117.130;2023-07-02T01:29:44;3.83;;;1.70;;
60896;SDS011;46749;32.932;-117.130;2023-07-02T01:32:12;4.68;;;2.20;;
60896;SDS011;46749;32.932;-117.130;2023-07-02T01:34:39;2.92;;;1.73;;
60896;SDS011;46749;32.932;-117.130;2023-07-02T01:37:06;3.45;;;1.52;;
60896;SDS011;46749;32.932;-117.130;2023-07-02T01:39:34;3.83;;;1.65;;
60896;SDS011;46749;32.932;-117.130;2023-07-02T01:42:10;4.30;;;1.83;;
60896;SDS011;46749;32.932;-117.130;2023-07-02T01:44:41;3.38;;;1.83;;
60896;SDS011;46749;32.932;-117.130;2023-07-02T01:47:07;3.85;;;1.98;;
60896;SDS011;46749;32.932;-117.130;2023-07-02T01:49:33;3.45;;;1.85;;
60896;SDS011;46749;32.932;-117.130;2023-07-02T01:52:01;5.88;;;1.80;;
60896;SDS011;46749;32.932;-117.130;2023-07-02T01:54:28;4.63;;;1.80;;
60896;SDS011;46749;32.932;-117.130;2023-07-02T01:56:55;3.80;;;1.70;;
60896;SDS011;46749;32.932;-117.130;2023-07-02T01:59:21;8.85;;;2.33;;
60896;SDS011;46749;32.932;-117.130;2023-07-02T02:01:48;4.30;;;1.85;;
60896;SDS011;46749;32.932;-117.130;2023-07-02T02:04:14;14.38;;;6.28;;
60896;SDS011;46749;32.932;-117.130;2023-07-02T02:06:40;16.00;;;4.40;;
60896;SDS011;46749;32.932;-117.130;2023-07-02T02:09:07;10.88;;;4.20;;
60896;SDS011;46749;32.932;-117.130;2023-07-02T02:11:36;9.07;;;4.18;;
60896;SDS011;46749;32.932;-117.130;2023-07-02T02:14:07;10.75;;;5.15;;
60896;SDS011;46749;32.932;-117.130;2023-07-02T02:16:33;8.90;;;4.93;;
60896;SDS011;46749;32.932;-117.130;2023-07-02T02:19:00;15.90;;;8.50;;
60896;SDS011;46749;32.932;-117.130;2023-07-02T02:21:26;204.70;;;127.28;;
60896;SDS011;46749;32.932;-117.130;2023-07-02T02:23:52;118.20;;;72.28;;
60896;SDS011;46749;32.932;-117.130;2023-07-02T02:26:20;106.63;;;66.30;;
60896;SDS011;46749;32.932;-117.130;2023-07-02T02:28:47;102.53;;;60.70;;
60896;SDS011;46749;32.932;-117.130;2023-07-02T02:31:14;94.93;;;55.88;;
60896;SDS011;46749;32.932;-117.130;2023-07-02T02:33:40;89.28;;;53.13;;
60896;SDS011;46749;32.932;-117.130;2023-07-02T02:36:06;89.40;;;53.38;;
60896;SDS011;46749;32.932;-117.130;2023-07-02T02:38:33;89.32;;;49.53;;
60896;SDS011;46749;32.932;-117.130;2023-07-02T02:40:59;84.10;;;50.08;;
60896;SDS011;46749;32.932;-117.130;2023-07-02T02:43:27;81.90;;;48.55;;
60896;SDS011;46749;32.932;-117.130;2023-07-02T02:45:53;81.80;;;48.47;;
60896;SDS011;46749;32.932;-117.130;2023-07-02T02:48:20;77.90;;;47.88;;
60896;SDS011;46749;32.932;-117.130;2023-07-02T02:50:48;70.63;;;42.63;;
60896;SDS011;46749;32.932;-117.130;2023-07-02T02:53:14;68.15;;;42.25;;
60896;SDS011;46749;32.932;-117.130;2023-07-02T02:55:40;66.97;;;41.83;;
60896;SDS011;46749;32.932;-117.130;2023-07-02T02:58:06;66.90;;;40.65;;
60896;SDS011;46749;32.932;-117.130;2023-07-02T03:00:33;64.82;;;40.25;;
60896;SDS011;46749;32.932;-117.130;2023-07-02T03:02:59;63.50;;;38.08;;
60896;SDS011;46749;32.932;-117.130;2023-07-02T03:05:25;61.40;;;36.45;;
60896;SDS011;46749;32.932;-117.130;2023-07-02T03:07:51;61.10;;;39.65;;
60896;SDS011;46749;32.932;-117.130;2023-07-02T03:10:17;58.40;;;36.30;;
60896;SDS011;46749;32.932;-117.130;2023-07-02T03:12:44;56.90;;;32.88;;
60896;SDS011;46749;32.932;-117.130;2023-07-02T03:15:10;57.38;;;33.88;;
60896;SDS011;46749;32.932;-117.130;2023-07-02T03:17:36;57.05;;;33.95;;
60896;SDS011;46749;32.932;-117.130;2023-07-02T03:20:02;52.95;;;31.20;;
60896;SDS011;46749;32.932;-117.130;2023-07-02T03:22:38;52.72;;;31.65;;
60896;SDS011;46749;32.932;-117.130;2023-07-02T03:25:04;48.65;;;31.02;;
60896;SDS011;46749;32.932;-117.130;2023-07-02T03:27:30;47.33;;;28.33;;
60896;SDS011;46749;32.932;-117.130;2023-07-02T03:29:56;46.03;;;28.35;;
60896;SDS011;46749;32.932;-117.130;2023-07-02T03:32:23;48.00;;;29.45;;
60896;SDS011;46749;32.932;-117.130;2023-07-02T03:34:50;44.25;;;27.42;;
60896;SDS011;46749;32.932;-117.130;2023-07-02T03:37:16;46.22;;;27.05;;
60896;SDS011;46749;32.932;-117.130;2023-07-02T03:39:43;44.30;;;26.30;;
60896;SDS011;46749;32.932;-117.130;2023-07-02T03:42:09;40.10;;;25.30;;
60896;SDS011;46749;32.932;-117.130;2023-07-02T03:44:35;42.72;;;25.08;;
60896;SDS011;46749;32.932;-117.130;2023-07-02T03:47:01;42.05;;;25.05;;
60896;SDS011;46749;32.932;-117.130;2023-07-02T03:49:28;38.38;;;23.45;;
60896;SDS011;46749;32.932;-117.130;2023-07-02T03:51:54;41.30;;;24.98;;
60896;SDS011;46749;32.932;-117.130;2023-07-02T03:54:20;39.00;;;23.23;;
60896;SDS011;46749;32.932;-117.130;2023-07-02T03:56:46;38.15;;;22.88;;
60896;SDS011;46749;32.932;-117.130;2023-07-02T03:59:12;37.92;;;23.08;;
60896;SDS011;46749;32.932;-117.130;2023-07-02T04:01:39;36.08;;;21.85;;
60896;SDS011;46749;32.932;-117.130;2023-07-02T04:04:05;38.42;;;21.20;;
60896;SDS011;46749;32.932;-117.130;2023-07-02T04:06:31;30.90;;;19.92;;
60896;SDS011;46749;32.932;-117.130;2023-07-02T04:08:59;30.20;;;19.63;;
60896;SDS011;46749;32.932;-117.130;2023-07-02T04:11:25;33.67;;;19.02;;
60896;SDS011;46749;32.932;-117.130;2023-07-02T04:13:51;28.60;;;18.35;;
60896;SDS011;46749;32.932;-117.130;2023-07-02T04:16:18;28.25;;;18.08;;
60896;SDS011;46749;32.932;-117.130;2023-07-02T04:18:44;29.42;;;18.30;;
60896;SDS011;46749;32.932;-117.130;2023-07-02T04:21:10;30.73;;;17.35;;
60896;SDS011;46749;32.932;-117.130;2023-07-02T04:23:36;26.65;;;15.68;;
60896;SDS011;46749;32.932;-117.130;2023-07-02T04:26:02;27.65;;;17.15;;
60896;SDS011;46749;32.932;-117.130;2023-07-02T04:28:28;26.58;;;15.88;;
60896;SDS011;46749;32.932;-117.130;2023-07-02T04:30:54;23.75;;;15.43;;
60896;SDS011;46749;32.932;-117.130;2023-07-02T04:33:21;29.13;;;15.98;;
60896;SDS011;46749;32.932;-117.130;2023-07-02T04:35:47;24.50;;;14.48;;
60896;SDS011;46749;32.932;-117.130;2023-07-02T04:38:13;25.35;;;14.98;;
60896;SDS011;46749;32.932;-117.130;2023-07-02T04:40:39;23.70;;;14.27;;
60896;SDS011;46749;32.932;-117.130;2023-07-02T04:43:07;22.52;;;14.25;;
60896;SDS011;46749;32.932;-117.130;2023-07-02T04:45:33;21.67;;;13.85;;
60896;SDS011;46749;32.932;-117.130;2023-07-02T04:48:04;21.52;;;13.32;;
60896;SDS011;46749;32.932;-117.130;2023-07-02T04:50:30;20.77;;;12.63;;
60896;SDS011;46749;32.932;-117.130;2023-07-02T04:52:56;22.73;;;12.82;;
60896;SDS011;46749;32.932;-117.130;2023-07-02T04:55:23;21.17;;;12.30;;
60896;SDS011;46749;32.932;-117.130;2023-07-02T04:57:49;16.35;;;10.65;;
60896;SDS011;46749;32.932;-117.130;2023-07-02T05:00:15;19.10;;;11.60;;
60896;SDS011;46749;32.932;-117.130;2023-07-02T05:02:41;16.42;;;10.15;;
60896;SDS011;46749;32.932;-117.130;2023-07-02T05:05:08;17.02;;;10.60;;
60896;SDS011;46749;32.932;-117.130;2023-07-02T05:07:34;16.58;;;10.85;;
60896;SDS011;46749;32.932;-117.130;2023-07-02T05:10:00;16.63;;;10.25;;
60896;SDS011;46749;32.932;-117.130;2023-07-02T05:12:26;19.17;;;10.50;;
60896;SDS011;46749;32.932;-117.130;2023-07-02T05:14:52;15.68;;;9.38;;
60896;SDS011;46749;32.932;-117.130;2023-07-02T05:17:19;18.42;;;9.63;;
60896;SDS011;46749;32.932;-117.130;2023-07-02T05:19:45;15.02;;;8.68;;
60896;SDS011;46749;32.932;-117.130;2023-07-02T05:22:11;14.60;;;8.88;;
60896;SDS011;46749;32.932;-117.130;2023-07-02T05:24:37;14.52;;;8.82;;
60896;SDS011;46749;32.932;-117.130;2023-07-02T05:27:04;15.07;;;8.75;;
60896;SDS011;46749;32.932;-117.130;2023-07-02T05:29:30;14.68;;;8.10;;
60896;SDS011;46749;32.932;-117.130;2023-07-02T05:31:56;11.88;;;7.30;;
60896;SDS011;46749;32.932;-117.130;2023-07-02T05:34:22;13.20;;;7.47;;
60896;SDS011;46749;32.932;-117.130;2023-07-02T05:36:48;12.18;;;7.40;;
60896;SDS011;46749;32.932;-117.130;2023-07-02T05:39:15;11.43;;;7.22;;
60896;SDS011;46749;32.932;-117.130;2023-07-02T05:41:41;13.02;;;7.35;;
60896;SDS011;46749;32.932;-117.130;2023-07-02T05:44:07;12.07;;;7.40;;
60896;SDS011;46749;32.932;-117.130;2023-07-02T05:46:33;8.75;;;6.25;;
60896;SDS011;46749;32.932;-117.130;2023-07-02T05:48:59;10.70;;;6.68;;
60896;SDS011;46749;32.932;-117.130;2023-07-02T05:51:25;9.90;;;6.03;;
60896;SDS011;46749;32.932;-117.130;2023-07-02T05:53:51;10.35;;;5.80;;
60896;SDS011;46749;32.932;-117.130;2023-07-02T05:56:18;10.27;;;5.65;;
60896;SDS011;46749;32.932;-117.130;2023-07-02T05:58:45;8.43;;;5.78;;
60896;SDS011;46749;32.932;-117.130;2023-07-02T06:01:12;10.52;;;5.95;;
60896;SDS011;46749;32.932;-117.130;2023-07-02T06:03:39;9.90;;;5.78;;
60896;SDS011;46749;32.932;-117.130;2023-07-02T06:06:05;8.40;;;5.45;;
60896;SDS011;46749;32.932;-117.130;2023-07-02T06:08:31;9.80;;;5.55;;
60896;SDS011;46749;32.932;-117.130;2023-07-02T06:10:57;10.40;;;5.68;;
60896;SDS011;46749;32.932;-117.130;2023-07-02T06:13:23;8.88;;;5.22;;
60896;SDS011;46749;32.932;-117.130;2023-07-02T06:15:50;8.88;;;4.78;;
60896;SDS011;46749;32.932;-117.130;2023-07-02T06:18:16;6.82;;;4.40;;
60896;SDS011;46749;32.932;-117.130;2023-07-02T06:20:42;8.27;;;4.65;;
60896;SDS011;46749;32.932;-117.130;2023-07-02T06:23:09;10.10;;;4.82;;
60896;SDS011;46749;32.932;-117.130;2023-07-02T06:25:35;7.43;;;4.47;;
60896;SDS011;46749;32.932;-117.130;2023-07-02T06:28:01;8.05;;;5.20;;
60896;SDS011;46749;32.932;-117.130;2023-07-02T06:30:27;9.70;;;4.78;;
60896;SDS011;46749;32.932;-117.130;2023-07-02T06:32:54;7.63;;;4.40;;
60896;SDS011;46749;32.932;-117.130;2023-07-02T06:35:20;8.52;;;4.90;;
60896;SDS011;46749;32.932;-117.130;2023-07-02T06:37:47;8.13;;;4.25;;
60896;SDS011;46749;32.932;-117.130;2023-07-02T06:40:13;6.90;;;3.70;;
60896;SDS011;46749;32.932;-117.130;2023-07-02T06:42:39;6.65;;;4.03;;
60896;SDS011;46749;32.932;-117.130;2023-07-02T06:45:06;9.77;;;4.45;;
60896;SDS011;46749;32.932;-117.130;2023-07-02T06:47:33;6.85;;;3.90;;
60896;SDS011;46749;32.932;-117.130;2023-07-02T06:49:59;5.97;;;3.80;;
60896;SDS011;46749;32.932;-117.130;2023-07-02T06:52:25;6.47;;;3.70;;
60896;SDS011;46749;32.932;-117.130;2023-07-02T06:54:51;5.20;;;3.65;;
60896;SDS011;46749;32.932;-117.130;2023-07-02T06:57:18;6.75;;;3.60;;
60896;SDS011;46749;32.932;-117.130;2023-07-02T06:59:45;8.00;;;3.72;;
60896;SDS011;46749;32.932;-117.130;2023-07-02T07:02:11;5.05;;;3.17;;
60896;SDS011;46749;32.932;-117.130;2023-07-02T07:04:37;6.45;;;3.20;;
60896;SDS011;46749;32.932;-117.130;2023-07-02T07:07:03;5.05;;;3.60;;
60896;SDS011;46749;32.932;-117.130;2023-07-02T07:09:29;7.45;;;3.60;;
60896;SDS011;46749;32.932;-117.130;2023-07-02T07:11:56;4.22;;;2.70;;
60896;SDS011;46749;32.932;-117.130;2023-07-02T07:14:22;5.82;;;3.38;;
60896;SDS011;46749;32.932;-117.130;2023-07-02T07:16:48;4.78;;;3.03;;
60896;SDS011;46749;32.932;-117.130;2023-07-02T07:19:16;4.57;;;2.72;;
60896;SDS011;46749;32.932;-117.130;2023-07-02T07:21:42;5.70;;;3.35;;
60896;SDS011;46749;32.932;-117.130;2023-07-02T07:24:09;5.63;;;2.90;;
60896;SDS011;46749;32.932;-117.130;2023-07-02T07:26:35;5.93;;;3.22;;
60896;SDS011;46749;32.932;-117.130;2023-07-02T07:29:01;5.07;;;3.22;;
60896;SDS011;46749;32.932;-117.130;2023-07-02T07:31:29;5.28;;;2.63;;
60896;SDS011;46749;32.932;-117.130;2023-07-02T07:33:55;5.28;;;3.20;;
60896;SDS011;46749;32.932;-117.130;2023-07-02T07:36:21;4.22;;;2.90;;
60896;SDS011;46749;32.932;-117.130;2023-07-02T07:38:47;4.38;;;3.03;;
60896;SDS011;46749;32.932;-117.130;2023-07-02T07:41:13;4.40;;;2.70;;
60896;SDS011;46749;32.932;-117.130;2023-07-02T07:43:40;4.88;;;2.90;;
60896;SDS011;46749;32.932;-117.130;2023-07-02T07:46:06;5.93;;;2.90;;
60896;SDS011;46749;32.932;-117.130;2023-07-02T07:48:32;5.68;;;2.97;;
60896;SDS011;46749;32.932;-117.130;2023-07-02T07:50:58;3.95;;;2.75;;
60896;SDS011;46749;32.932;-117.130;2023-07-02T07:53:25;6.10;;;3.20;;
60896;SDS011;46749;32.932;-117.130;2023-07-02T07:55:51;4.95;;;2.40;;
60896;SDS011;46749;32.932;-117.130;2023-07-02T07:58:17;4.30;;;2.30;;
60896;SDS011;46749;32.932;-117.130;2023-07-02T08:00:43;4.88;;;2.38;;
60896;SDS011;46749;32.932;-117.130;2023-07-02T08:03:09;4.38;;;2.75;;
60896;SDS011;46749;32.932;-117.130;2023-07-02T08:05:36;4.40;;;2.55;;
60896;SDS011;46749;32.932;-117.130;2023-07-02T08:08:02;5.05;;;3.05;;
60896;SDS011;46749;32.932;-117.130;2023-07-02T08:10:28;4.43;;;2.50;;
60896;SDS011;46749;32.932;-117.130;2023-07-02T08:12:55;3.78;;;2.30;;
60896;SDS011;46749;32.932;-117.130;2023-07-02T08:15:21;3.58;;;2.38;;
60896;SDS011;46749;32.932;-117.130;2023-07-02T08:17:48;3.50;;;2.60;;
60896;SDS011;46749;32.932;-117.130;2023-07-02T08:20:14;3.40;;;2.13;;
60896;SDS011;46749;32.932;-117.130;2023-07-02T08:22:40;5.13;;;2.47;;
60896;SDS011;46749;32.932;-117.130;2023-07-02T08:25:06;4.72;;;2.40;;
60896;SDS011;46749;32.932;-117.130;2023-07-02T08:27:33;3.72;;;2.35;;
60896;SDS011;46749;32.932;-117.130;2023-07-02T08:30:00;5.15;;;2.80;;
60896;SDS011;46749;32.932;-117.130;2023-07-02T08:32:26;4.55;;;2.35;;
60896;SDS011;46749;32.932;-117.130;2023-07-02T08:34:52;3.15;;;2.20;;
60896;SDS011;46749;32.932;-117.130;2023-07-02T08:37:20;3.10;;;2.13;;
60896;SDS011;46749;32.932;-117.130;2023-07-02T08:39:48;3.50;;;2.03;;
60896;SDS011;46749;32.932;-117.130;2023-07-02T08:42:15;4.25;;;2.22;;
60896;SDS011;46749;32.932;-117.130;2023-07-02T08:44:42;3.85;;;2.30;;
60896;SDS011;46749;32.932;-117.130;2023-07-02T08:47:12;3.25;;;2.10;;
60896;SDS011;46749;32.932;-117.130;2023-07-02T08:49:39;3.28;;;1.92;;
60896;SDS011;46749;32.932;-117.130;2023-07-02T08:52:07;3.08;;;1.98;;
60896;SDS011;46749;32.932;-117.130;2023-07-02T08:54:33;4.05;;;2.30;;
60896;SDS011;46749;32.932;-117.130;2023-07-02T08:56:59;2.78;;;1.92;;
60896;SDS011;46749;32.932;-117.130;2023-07-02T08:59:30;3.33;;;2.15;;
60896;SDS011;46749;32.932;-117.130;2023-07-02T09:01:56;3.13;;;2.05;;
60896;SDS011;46749;32.932;-117.130;2023-07-02T09:04:24;3.60;;;2.28;;
60896;SDS011;46749;32.932;-117.130;2023-07-02T09:07:02;3.97;;;2.30;;
60896;SDS011;46749;32.932;-117.130;2023-07-02T09:09:33;3.65;;;2.10;;
60896;SDS011;46749;32.932;-117.130;2023-07-02T09:12:21;3.63;;;2.13;;
60896;SDS011;46749;32.932;-117.130;2023-07-02T09:14:57;5.38;;;2.47;;
60896;SDS011;46749;32.932;-117.130;2023-07-02T09:17:34;3.53;;;2.00;;
60896;SDS011;46749;32.932;-117.130;2023-07-02T09:20:02;4.00;;;2.30;;
60896;SDS011;46749;32.932;-117.130;2023-07-02T09:22:32;2.80;;;1.95;;
60896;SDS011;46749;32.932;-117.130;2023-07-02T09:24:59;4.88;;;2.47;;
60896;SDS011;46749;32.932;-117.130;2023-07-02T09:27:39;2.88;;;2.00;;
60896;SDS011;46749;32.932;-117.130;2023-07-02T09:30:10;3.35;;;2.40;;
60896;SDS011;46749;32.932;-117.130;2023-07-02T09:32:44;4.65;;;2.28;;
60896;SDS011;46749;32.932;-117.130;2023-07-02T09:35:11;4.32;;;2.40;;
60896;SDS011;46749;32.932;-117.130;2023-07-02T09:37:38;3.13;;;2.03;;
60896;SDS011;46749;32.932;-117.130;2023-07-02T09:40:07;2.42;;;1.80;;
60896;SDS011;46749;32.932;-117.130;2023-07-02T09:42:34;4.25;;;1.92;;
60896;SDS011;46749;32.932;-117.130;2023-07-02T09:45:03;4.18;;;2.13;;
60896;SDS011;46749;32.932;-117.130;2023-07-02T09:47:33;2.30;;;2.10;;
60896;SDS011;46749;32.932;-117.130;2023-07-02T09:50:04;2.08;;;1.80;;
60896;SDS011;46749;32.932;-117.130;2023-07-02T09:52:31;3.72;;;2.08;;
60896;SDS011;46749;32.932;-117.130;2023-07-02T09:54:59;3.25;;;2.17;;
60896;SDS011;46749;32.932;-117.130;2023-07-02T09:57:26;2.88;;;2.15;;
60896;SDS011;46749;32.932;-117.130;2023-07-02T09:59:56;2.83;;;1.88;;
60896;SDS011;46749;32.932;-117.130;2023-07-02T10:02:24;4.05;;;1.77;;
60896;SDS011;46749;32.932;-117.130;2023-07-02T10:04:51;2.42;;;2.17;;
60896;SDS011;46749;32.932;-117.130;2023-07-02T10:07:26;2.58;;;1.92;;
60896;SDS011;46749;32.932;-117.130;2023-07-02T10:09:54;3.00;;;1.83;;
60896;SDS011;46749;32.932;-117.130;2023-07-02T10:12:21;3.63;;;1.90;;
60896;SDS011;46749;32.932;-117.130;2023-07-02T10:14:49;3.28;;;1.98;;
60896;SDS011;46749;32.932;-117.130;2023-07-02T10:17:53;2.83;;;1.85;;
60896;SDS011;46749;32.932;-117.130;2023-07-02T10:20:30;3.00;;;2.10;;
60896;SDS011;46749;32.932;-117.130;2023-07-02T10:23:07;3.15;;;1.75;;
60896;SDS011;46749;32.932;-117.130;2023-07-02T10:25:34;2.03;;;1.90;;
60896;SDS011;46749;32.932;-117.130;2023-07-02T10:28:18;4.22;;;2.05;;
60896;SDS011;46749;32.932;-117.130;2023-07-02T10:30:47;3.05;;;2.10;;
60896;SDS011;46749;32.932;-117.130;2023-07-02T10:33:14;3.08;;;1.75;;
60896;SDS011;46749;32.932;-117.130;2023-07-02T10:35:47;2.38;;;1.83;;
60896;SDS011;46749;32.932;-117.130;2023-07-02T10:38:23;2.22;;;2.03;;
60896;SDS011;46749;32.932;-117.130;2023-07-02T10:40:54;2.70;;;1.95;;
60896;SDS011;46749;32.932;-117.130;2023-07-02T10:43:28;2.40;;;1.60;;
60896;SDS011;46749;32.932;-117.130;2023-07-02T10:45:55;2.17;;;1.65;;
60896;SDS011;46749;32.932;-117.130;2023-07-02T10:48:22;1.95;;;1.63;;
60896;SDS011;46749;32.932;-117.130;2023-07-02T10:50:48;3.25;;;1.98;;
60896;SDS011;46749;32.932;-117.130;2023-07-02T10:53:15;3.08;;;2.20;;
60896;SDS011;46749;32.932;-117.130;2023-07-02T10:55:42;3.75;;;1.80;;
60896;SDS011;46749;32.932;-117.130;2023-07-02T10:58:09;1.75;;;1.65;;
60896;SDS011;46749;32.932;-117.130;2023-07-02T11:00:49;2.08;;;1.73;;
60896;SDS011;46749;32.932;-117.130;2023-07-02T11:03:17;2.25;;;1.63;;
60896;SDS011;46749;32.932;-117.130;2023-07-02T11:05:47;2.25;;;1.55;;
60896;SDS011;46749;32.932;-117.130;2023-07-02T11:08:14;3.50;;;2.13;;
60896;SDS011;46749;32.932;-117.130;2023-07-02T11:10:41;2.97;;;1.70;;
60896;SDS011;46749;32.932;-117.130;2023-07-02T11:13:14;2.33;;;1.50;;
60896;SDS011;46749;32.932;-117.130;2023-07-02T11:15:41;1.90;;;1.70;;
60896;SDS011;46749;32.932;-117.130;2023-07-02T11:18:17;2.78;;;1.77;;
60896;SDS011;46749;32.932;-117.130;2023-07-02T11:20:47;2.95;;;1.70;;
60896;SDS011;46749;32.932;-117.130;2023-07-02T11:23:20;2.95;;;1.90;;
60896;SDS011;46749;32.932;-117.130;2023-07-02T11:28:23;1.88;;;1.38;;
60896;SDS011;46749;32.932;-117.130;2023-07-02T11:30:49;3.63;;;1.95;;
60896;SDS011;46749;32.932;-117.130;2023-07-02T11:33:16;2.13;;;1.60;;
60896;SDS011;46749;32.932;-117.130;2023-07-02T11:35:42;3.35;;;1.60;;
60896;SDS011;46749;32.932;-117.130;2023-07-02T11:38:11;2.05;;;1.85;;
60896;SDS011;46749;32.932;-117.130;2023-07-02T11:40:38;3.08;;;1.65;;
60896;SDS011;46749;32.932;-117.130;2023-07-02T11:43:05;3.00;;;1.60;;
60896;SDS011;46749;32.932;-117.130;2023-07-02T11:45:31;2.95;;;1.60;;
60896;SDS011;46749;32.932;-117.130;2023-07-02T11:47:57;1.98;;;1.70;;
60896;SDS011;46749;32.932;-117.130;2023-07-02T11:50:23;1.70;;;1.60;;
60896;SDS011;46749;32.932;-117.130;2023-07-02T11:52:50;2.03;;;1.60;;
60896;SDS011;46749;32.932;-117.130;2023-07-02T11:55:16;2.65;;;1.98;;
60896;SDS011;46749;32.932;-117.130;2023-07-02T11:57:42;2.53;;;1.65;;
60896;SDS011;46749;32.932;-117.130;2023-07-02T12:00:08;1.92;;;1.30;;
60896;SDS011;46749;32.932;-117.130;2023-07-02T12:02:34;3.10;;;1.60;;
60896;SDS011;46749;32.932;-117.130;2023-07-02T12:05:01;1.70;;;1.40;;
60896;SDS011;46749;32.932;-117.130;2023-07-02T12:07:27;1.70;;;1.50;;
60896;SDS011;46749;32.932;-117.130;2023-07-02T12:09:53;2.38;;;1.58;;
60896;SDS011;46749;32.932;-117.130;2023-07-02T12:12:19;2.60;;;1.50;;
60896;SDS011;46749;32.932;-117.130;2023-07-02T12:14:45;1.80;;;1.52;;
60896;SDS011;46749;32.932;-117.130;2023-07-02T12:17:11;3.17;;;1.85;;
60896;SDS011;46749;32.932;-117.130;2023-07-02T12:19:40;1.65;;;1.52;;
60896;SDS011;46749;32.932;-117.130;2023-07-02T12:22:06;3.40;;;1.80;;
60896;SDS011;46749;32.932;-117.130;2023-07-02T12:24:33;2.90;;;1.73;;
60896;SDS011;46749;32.932;-117.130;2023-07-02T12:26:59;2.50;;;1.88;;
60896;SDS011;46749;32.932;-117.130;2023-07-02T12:29:26;2.53;;;1.55;;
60896;SDS011;46749;32.932;-117.130;2023-07-02T12:31:52;2.17;;;1.60;;
60896;SDS011;46749;32.932;-117.130;2023-07-02T12:34:18;2.97;;;1.70;;
60896;SDS011;46749;32.932;-117.130;2023-07-02T12:36:44;1.98;;;1.52;;
60896;SDS011;46749;32.932;-117.130;2023-07-02T12:39:10;1.48;;;1.35;;
60896;SDS011;46749;32.932;-117.130;2023-07-02T12:41:36;2.20;;;2.00;;
60896;SDS011;46749;32.932;-117.130;2023-07-02T12:44:02;1.90;;;1.33;;
60896;SDS011;46749;32.932;-117.130;2023-07-02T12:46:28;1.83;;;1.73;;
60896;SDS011;46749;32.932;-117.130;2023-07-02T12:48:55;2.72;;;1.65;;
60896;SDS011;46749;32.932;-117.130;2023-07-02T12:51:21;3.05;;;1.50;;
60896;SDS011;46749;32.932;-117.130;2023-07-02T12:53:47;2.38;;;1.58;;
60896;SDS011;46749;32.932;-117.130;2023-07-02T12:56:13;2.47;;;1.80;;
60896;SDS011;46749;32.932;-117.130;2023-07-02T12:58:39;2.72;;;1.63;;
60896;SDS011;46749;32.932;-117.130;2023-07-02T13:01:06;1.50;;;1.38;;
60896;SDS011;46749;32.932;-117.130;2023-07-02T13:03:32;3.00;;;1.52;;
60896;SDS011;46749;32.932;-117.130;2023-07-02T13:05:58;1.88;;;1.60;;
60896;SDS011;46749;32.932;-117.130;2023-07-02T13:08:24;1.92;;;1.40;;
60896;SDS011;46749;32.932;-117.130;2023-07-02T13:10:50;3.25;;;1.80;;
60896;SDS011;46749;32.932;-117.130;2023-07-02T13:13:16;2.40;;;1.40;;
60896;SDS011;46749;32.932;-117.130;2023-07-02T13:15:42;2.53;;;1.65;;
60896;SDS011;46749;32.932;-117.130;2023-07-02T13:18:09;2.08;;;1.58;;
60896;SDS011;46749;32.932;-117.130;2023-07-02T13:20:35;2.35;;;1.65;;
60896;SDS011;46749;32.932;-117.130;2023-07-02T13:23:02;1.80;;;1.40;;
60896;SDS011;46749;32.932;-117.130;2023-07-02T13:25:29;3.00;;;1.67;;
60896;SDS011;46749;32.932;-117.130;2023-07-02T13:27:55;2.08;;;1.60;;
60896;SDS011;46749;32.932;-117.130;2023-07-02T13:30:21;1.67;;;1.38;;
60896;SDS011;46749;32.932;-117.130;2023-07-02T13:32:47;1.95;;;1.70;;
60896;SDS011;46749;32.932;-117.130;2023-07-02T13:35:13;1.33;;;1.20;;
60896;SDS011;46749;32.932;-117.130;2023-07-02T13:37:39;1.30;;;1.20;;
60896;SDS011;46749;32.932;-117.130;2023-07-02T13:40:06;2.60;;;1.63;;
60896;SDS011;46749;32.932;-117.130;2023-07-02T13:42:34;3.30;;;1.48;;
60896;SDS011;46749;32.932;-117.130;2023-07-02T13:45:01;2.92;;;1.58;;
60896;SDS011;46749;32.932;-117.130;2023-07-02T13:47:27;2.15;;;1.35;;
60896;SDS011;46749;32.932;-117.130;2023-07-02T13:49:53;2.20;;;1.58;;
60896;SDS011;46749;32.932;-117.130;2023-07-02T13:52:20;2.05;;;1.73;;
60896;SDS011;46749;32.932;-117.130;2023-07-02T13:54:46;2.50;;;1.45;;
60896;SDS011;46749;32.932;-117.130;2023-07-02T13:57:12;2.05;;;1.50;;
60896;SDS011;46749;32.932;-117.130;2023-07-02T13:59:39;2.47;;;1.35;;
60896;SDS011;46749;32.932;-117.130;2023-07-02T14:02:05;2.63;;;1.40;;
60896;SDS011;46749;32.932;-117.130;2023-07-02T14:04:31;1.75;;;1.40;;
60896;SDS011;46749;32.932;-117.130;2023-07-02T14:06:57;3.22;;;1.60;;
60896;SDS011;46749;32.932;-117.130;2023-07-02T14:09:24;3.67;;;1.75;;
60896;SDS011;46749;32.932;-117.130;2023-07-02T14:11:50;2.28;;;1.40;;